sensor_id;sensor_type;location;lat;lon;timestamp;P1;durP1;ratioP1;P2;durP2;ratioP2
18853;SDS011;9556;49.374;19.446;2023-02-19T00:00:10;1.10;;;0.80;;
18853;SDS011;9556;49.374;19.446;2023-02-19T00:02:40;1.40;;;0.90;;
18853;SDS011;9556;49.374;19.446;2023-02-19T00:05:09;0.80;;;0.70;;
18853;SDS011;9556;49.374;19.446;2023-02-19T00:07:36;0.80;;;0.80;;
18853;SDS011;9556;49.374;19.446;2023-02-19T00:10:03;0.77;;;0.73;;
18853;SDS011;9556;49.374;19.446;2023-02-19T00:12:30;1.43;;;0.80;;
18853;SDS011;9556;49.374;19.446;2023-02-19T00:14:58;0.70;;;0.60;;
18853;SDS011;9556;49.374;19.446;2023-02-19T00:17:25;0.67;;;0.60;;
18853;SDS011;9556;49.374;19.446;2023-02-19T00:19:53;1.50;;;0.90;;
18853;SDS011;9556;49.374;19.446;2023-02-19T00:22:20;1.20;;;1.10;;
18853;SDS011;9556;49.374;19.446;2023-02-19T00:24:48;0.80;;;0.77;;
18853;SDS011;9556;49.374;19.446;2023-02-19T00:27:15;0.97;;;0.80;;
18853;SDS011;9556;49.374;19.446;2023-02-19T00:29:42;1.03;;;0.90;;
18853;SDS011;9556;49.374;19.446;2023-02-19T00:32:09;0.80;;;0.80;;
18853;SDS011;9556;49.374;19.446;2023-02-19T00:34:36;0.97;;;0.70;;
18853;SDS011;9556;49.374;19.446;2023-02-19T00:37:05;1.33;;;0.80;;
18853;SDS011;9556;49.374;19.446;2023-02-19T00:39:32;0.67;;;0.63;;
18853;SDS011;9556;49.374;19.446;2023-02-19T00:41:59;0.67;;;0.60;;
18853;SDS011;9556;49.374;19.446;2023-02-19T00:44:26;0.70;;;0.60;;
18853;SDS011;9556;49.374;19.446;2023-02-19T00:46:53;0.90;;;0.70;;
18853;SDS011;9556;49.374;19.446;2023-02-19T00:49:21;0.73;;;0.63;;
18853;SDS011;9556;49.374;19.446;2023-02-19T00:51:49;0.70;;;0.70;;
18853;SDS011;9556;49.374;19.446;2023-02-19T00:54:17;1.75;;;0.77;;
18853;SDS011;9556;49.374;19.446;2023-02-19T00:56:46;0.83;;;0.70;;
18853;SDS011;9556;49.374;19.446;2023-02-19T00:59:13;1.07;;;0.97;;
18853;SDS011;9556;49.374;19.446;2023-02-19T01:01:41;1.23;;;0.83;;
18853;SDS011;9556;49.374;19.446;2023-02-19T01:04:09;0.80;;;0.80;;
18853;SDS011;9556;49.374;19.446;2023-02-19T01:06:36;0.70;;;0.60;;
18853;SDS011;9556;49.374;19.446;2023-02-19T01:09:03;0.83;;;0.70;;
18853;SDS011;9556;49.374;19.446;2023-02-19T01:11:33;1.43;;;0.70;;
18853;SDS011;9556;49.374;19.446;2023-02-19T01:14:00;0.90;;;0.60;;
18853;SDS011;9556;49.374;19.446;2023-02-19T01:16:27;0.60;;;0.50;;
18853;SDS011;9556;49.374;19.446;2023-02-19T01:18:55;0.80;;;0.70;;
18853;SDS011;9556;49.374;19.446;2023-02-19T01:21:23;0.60;;;0.60;;
18853;SDS011;9556;49.374;19.446;2023-02-19T01:23:51;1.13;;;0.63;;
18853;SDS011;9556;49.374;19.446;2023-02-19T01:26:20;0.77;;;0.77;;
18853;SDS011;9556;49.374;19.446;2023-02-19T01:28:48;0.80;;;0.53;;
18853;SDS011;9556;49.374;19.446;2023-02-19T01:31:16;0.70;;;0.60;;
18853;SDS011;9556;49.374;19.446;2023-02-19T01:33:44;0.50;;;0.50;;
18853;SDS011;9556;49.374;19.446;2023-02-19T01:36:11;0.60;;;0.60;;
18853;SDS011;9556;49.374;19.446;2023-02-19T01:38:39;0.77;;;0.77;;
18853;SDS011;9556;49.374;19.446;2023-02-19T01:41:06;0.70;;;0.70;;
18853;SDS011;9556;49.374;19.446;2023-02-19T01:43:34;0.97;;;0.70;;
18853;SDS011;9556;49.374;19.446;2023-02-19T01:46:23;1.07;;;0.90;;
18853;SDS011;9556;49.374;19.446;2023-02-19T01:48:50;0.70;;;0.70;;
18853;SDS011;9556;49.374;19.446;2023-02-19T01:51:18;0.77;;;0.70;;
18853;SDS011;9556;49.374;19.446;2023-02-19T01:53:46;1.17;;;0.70;;
18853;SDS011;9556;49.374;19.446;2023-02-19T01:56:16;1.20;;;0.80;;
18853;SDS011;9556;49.374;19.446;2023-02-19T01:58:44;0.60;;;0.60;;
18853;SDS011;9556;49.374;19.446;2023-02-19T02:01:11;0.77;;;0.77;;
18853;SDS011;9556;49.374;19.446;2023-02-19T02:03:40;0.83;;;0.80;;
18853;SDS011;9556;49.374;19.446;2023-02-19T02:06:10;0.75;;;0.60;;
18853;SDS011;9556;49.374;19.446;2023-02-19T02:08:39;1.20;;;0.85;;
18853;SDS011;9556;49.374;19.446;2023-02-19T02:11:24;0.83;;;0.80;;
18853;SDS011;9556;49.374;19.446;2023-02-19T02:13:51;0.80;;;0.80;;
18853;SDS011;9556;49.374;19.446;2023-02-19T02:16:21;0.80;;;0.70;;
18853;SDS011;9556;49.374;19.446;2023-02-19T02:18:57;0.60;;;0.60;;
18853;SDS011;9556;49.374;19.446;2023-02-19T02:21:34;1.07;;;0.70;;
18853;SDS011;9556;49.374;19.446;2023-02-19T02:24:17;1.10;;;0.70;;
18853;SDS011;9556;49.374;19.446;2023-02-19T02:26:55;0.40;;;0.40;;
18853;SDS011;9556;49.374;19.446;2023-02-19T02:32:10;0.60;;;0.60;;
18853;SDS011;9556;49.374;19.446;2023-02-19T02:34:39;0.90;;;0.80;;
18853;SDS011;9556;49.374;19.446;2023-02-19T02:37:07;0.60;;;0.60;;
18853;SDS011;9556;49.374;19.446;2023-02-19T02:39:35;0.80;;;0.60;;
18853;SDS011;9556;49.374;19.446;2023-02-19T02:42:02;0.70;;;0.70;;
18853;SDS011;9556;49.374;19.446;2023-02-19T02:44:50;0.70;;;0.60;;
18853;SDS011;9556;49.374;19.446;2023-02-19T02:47:33;0.67;;;0.63;;
18853;SDS011;9556;49.374;19.446;2023-02-19T02:50:10;2.30;;;0.70;;
18853;SDS011;9556;49.374;19.446;2023-02-19T02:52:39;0.70;;;0.70;;
18853;SDS011;9556;49.374;19.446;2023-02-19T02:55:25;0.73;;;0.60;;
18853;SDS011;9556;49.374;19.446;2023-02-19T02:57:55;1.13;;;0.60;;
18853;SDS011;9556;49.374;19.446;2023-02-19T03:00:23;0.60;;;0.60;;
18853;SDS011;9556;49.374;19.446;2023-02-19T03:03:12;0.70;;;0.70;;
18853;SDS011;9556;49.374;19.446;2023-02-19T03:05:40;0.60;;;0.50;;
18853;SDS011;9556;49.374;19.446;2023-02-19T03:08:18;0.50;;;0.50;;
18853;SDS011;9556;49.374;19.446;2023-02-19T03:10:47;0.60;;;0.60;;
18853;SDS011;9556;49.374;19.446;2023-02-19T03:13:18;0.80;;;0.80;;
18853;SDS011;9556;49.374;19.446;2023-02-19T03:16:04;0.90;;;0.60;;
18853;SDS011;9556;49.374;19.446;2023-02-19T03:18:53;0.60;;;0.60;;
18853;SDS011;9556;49.374;19.446;2023-02-19T03:21:39;2.00;;;0.80;;
18853;SDS011;9556;49.374;19.446;2023-02-19T03:24:07;0.80;;;0.67;;
18853;SDS011;9556;49.374;19.446;2023-02-19T03:27:05;0.50;;;0.50;;
18853;SDS011;9556;49.374;19.446;2023-02-19T03:29:33;0.60;;;0.60;;
18853;SDS011;9556;49.374;19.446;2023-02-19T03:32:02;0.63;;;0.63;;
18853;SDS011;9556;49.374;19.446;2023-02-19T03:34:33;0.80;;;0.60;;
18853;SDS011;9556;49.374;19.446;2023-02-19T03:37:02;0.60;;;0.60;;
18853;SDS011;9556;49.374;19.446;2023-02-19T03:39:32;0.70;;;0.70;;
18853;SDS011;9556;49.374;19.446;2023-02-19T03:42:10;0.53;;;0.50;;
18853;SDS011;9556;49.374;19.446;2023-02-19T03:44:42;0.87;;;0.63;;
18853;SDS011;9556;49.374;19.446;2023-02-19T03:47:12;0.80;;;0.60;;
18853;SDS011;9556;49.374;19.446;2023-02-19T03:49:43;0.60;;;0.60;;
18853;SDS011;9556;49.374;19.446;2023-02-19T03:52:12;0.70;;;0.50;;
18853;SDS011;9556;49.374;19.446;2023-02-19T03:54:44;0.50;;;0.50;;
18853;SDS011;9556;49.374;19.446;2023-02-19T03:57:13;0.90;;;0.50;;
18853;SDS011;9556;49.374;19.446;2023-02-19T03:59:42;0.70;;;0.60;;
18853;SDS011;9556;49.374;19.446;2023-02-19T04:02:12;0.50;;;0.47;;
18853;SDS011;9556;49.374;19.446;2023-02-19T04:04:41;0.80;;;0.60;;
18853;SDS011;9556;49.374;19.446;2023-02-19T04:07:11;0.80;;;0.60;;
18853;SDS011;9556;49.374;19.446;2023-02-19T04:09:39;0.53;;;0.50;;
18853;SDS011;9556;49.374;19.446;2023-02-19T04:12:07;0.63;;;0.60;;
18853;SDS011;9556;49.374;19.446;2023-02-19T04:14:35;0.60;;;0.60;;
18853;SDS011;9556;49.374;19.446;2023-02-19T04:17:05;0.60;;;0.60;;
18853;SDS011;9556;49.374;19.446;2023-02-19T04:19:34;0.50;;;0.50;;
18853;SDS011;9556;49.374;19.446;2023-02-19T04:22:03;0.97;;;0.70;;
18853;SDS011;9556;49.374;19.446;2023-02-19T04:24:33;0.70;;;0.70;;
18853;SDS011;9556;49.374;19.446;2023-02-19T04:27:02;0.60;;;0.60;;
18853;SDS011;9556;49.374;19.446;2023-02-19T04:29:29;0.50;;;0.50;;
18853;SDS011;9556;49.374;19.446;2023-02-19T04:31:56;0.70;;;0.70;;
18853;SDS011;9556;49.374;19.446;2023-02-19T04:34:23;1.40;;;0.60;;
18853;SDS011;9556;49.374;19.446;2023-02-19T04:36:50;0.53;;;0.53;;
18853;SDS011;9556;49.374;19.446;2023-02-19T04:39:18;0.50;;;0.50;;
18853;SDS011;9556;49.374;19.446;2023-02-19T04:41:46;0.90;;;0.50;;
18853;SDS011;9556;49.374;19.446;2023-02-19T04:44:13;0.47;;;0.47;;
18853;SDS011;9556;49.374;19.446;2023-02-19T04:46:40;0.60;;;0.60;;
18853;SDS011;9556;49.374;19.446;2023-02-19T04:49:08;0.97;;;0.70;;
18853;SDS011;9556;49.374;19.446;2023-02-19T04:51:35;0.57;;;0.53;;
18853;SDS011;9556;49.374;19.446;2023-02-19T04:54:02;0.80;;;0.70;;
18853;SDS011;9556;49.374;19.446;2023-02-19T04:56:29;0.70;;;0.57;;
18853;SDS011;9556;49.374;19.446;2023-02-19T04:58:58;0.60;;;0.60;;
18853;SDS011;9556;49.374;19.446;2023-02-19T05:01:25;0.50;;;0.50;;
18853;SDS011;9556;49.374;19.446;2023-02-19T05:03:52;0.67;;;0.50;;
18853;SDS011;9556;49.374;19.446;2023-02-19T05:06:19;0.60;;;0.60;;
18853;SDS011;9556;49.374;19.446;2023-02-19T05:08:46;0.50;;;0.50;;
18853;SDS011;9556;49.374;19.446;2023-02-19T05:11:13;0.50;;;0.50;;
18853;SDS011;9556;49.374;19.446;2023-02-19T05:13:40;1.00;;;0.57;;
18853;SDS011;9556;49.374;19.446;2023-02-19T05:16:10;0.90;;;0.70;;
18853;SDS011;9556;49.374;19.446;2023-02-19T05:18:40;0.90;;;0.60;;
18853;SDS011;9556;49.374;19.446;2023-02-19T05:21:07;0.57;;;0.57;;
18853;SDS011;9556;49.374;19.446;2023-02-19T05:23:35;0.60;;;0.60;;
18853;SDS011;9556;49.374;19.446;2023-02-19T05:26:03;0.50;;;0.50;;
18853;SDS011;9556;49.374;19.446;2023-02-19T05:28:31;0.67;;;0.60;;
18853;SDS011;9556;49.374;19.446;2023-02-19T05:31:02;0.50;;;0.50;;
18853;SDS011;9556;49.374;19.446;2023-02-19T05:33:31;0.63;;;0.57;;
18853;SDS011;9556;49.374;19.446;2023-02-19T05:35:58;0.40;;;0.40;;
18853;SDS011;9556;49.374;19.446;2023-02-19T05:38:25;0.50;;;0.43;;
18853;SDS011;9556;49.374;19.446;2023-02-19T05:40:52;0.60;;;0.60;;
18853;SDS011;9556;49.374;19.446;2023-02-19T05:43:22;0.70;;;0.60;;
18853;SDS011;9556;49.374;19.446;2023-02-19T05:45:49;0.60;;;0.50;;
18853;SDS011;9556;49.374;19.446;2023-02-19T05:48:16;1.53;;;0.50;;
18853;SDS011;9556;49.374;19.446;2023-02-19T05:50:45;0.80;;;0.60;;
18853;SDS011;9556;49.374;19.446;2023-02-19T05:53:12;0.70;;;0.53;;
18853;SDS011;9556;49.374;19.446;2023-02-19T05:55:39;0.50;;;0.50;;
18853;SDS011;9556;49.374;19.446;2023-02-19T05:58:06;0.60;;;0.50;;
18853;SDS011;9556;49.374;19.446;2023-02-19T06:00:34;0.60;;;0.60;;
18853;SDS011;9556;49.374;19.446;2023-02-19T06:03:01;0.50;;;0.40;;
18853;SDS011;9556;49.374;19.446;2023-02-19T06:05:28;3.77;;;0.60;;
18853;SDS011;9556;49.374;19.446;2023-02-19T06:07:56;0.50;;;0.50;;
18853;SDS011;9556;49.374;19.446;2023-02-19T06:10:24;1.03;;;0.70;;
18853;SDS011;9556;49.374;19.446;2023-02-19T06:12:52;1.83;;;0.53;;
18853;SDS011;9556;49.374;19.446;2023-02-19T06:15:19;0.50;;;0.50;;
18853;SDS011;9556;49.374;19.446;2023-02-19T06:17:47;1.00;;;0.80;;
18853;SDS011;9556;49.374;19.446;2023-02-19T06:20:14;1.20;;;0.50;;
18853;SDS011;9556;49.374;19.446;2023-02-19T06:22:41;8.03;;;0.77;;
18853;SDS011;9556;49.374;19.446;2023-02-19T06:25:10;1.23;;;0.70;;
18853;SDS011;9556;49.374;19.446;2023-02-19T06:27:37;1.27;;;0.97;;
18853;SDS011;9556;49.374;19.446;2023-02-19T06:30:04;0.70;;;0.60;;
18853;SDS011;9556;49.374;19.446;2023-02-19T06:32:32;1.30;;;0.70;;
18853;SDS011;9556;49.374;19.446;2023-02-19T06:34:59;0.60;;;0.60;;
18853;SDS011;9556;49.374;19.446;2023-02-19T06:37:26;0.50;;;0.50;;
18853;SDS011;9556;49.374;19.446;2023-02-19T06:39:53;0.67;;;0.57;;
18853;SDS011;9556;49.374;19.446;2023-02-19T06:42:22;0.60;;;0.60;;
18853;SDS011;9556;49.374;19.446;2023-02-19T06:44:49;1.97;;;0.70;;
18853;SDS011;9556;49.374;19.446;2023-02-19T06:47:16;1.02;;;0.40;;
18853;SDS011;9556;49.374;19.446;2023-02-19T06:49:43;0.85;;;0.60;;
18853;SDS011;9556;49.374;19.446;2023-02-19T06:52:11;4.73;;;0.63;;
18853;SDS011;9556;49.374;19.446;2023-02-19T06:54:38;1.10;;;0.60;;
18853;SDS011;9556;49.374;19.446;2023-02-19T06:57:07;6.37;;;0.60;;
18853;SDS011;9556;49.374;19.446;2023-02-19T06:59:36;0.50;;;0.40;;
18853;SDS011;9556;49.374;19.446;2023-02-19T07:02:03;1.77;;;0.70;;
18853;SDS011;9556;49.374;19.446;2023-02-19T07:04:30;3.50;;;0.53;;
18853;SDS011;9556;49.374;19.446;2023-02-19T07:06:57;3.83;;;0.50;;
18853;SDS011;9556;49.374;19.446;2023-02-19T07:09:24;1.70;;;0.77;;
18853;SDS011;9556;49.374;19.446;2023-02-19T07:11:52;2.10;;;0.60;;
18853;SDS011;9556;49.374;19.446;2023-02-19T07:14:20;4.93;;;0.60;;
18853;SDS011;9556;49.374;19.446;2023-02-19T07:16:48;2.77;;;0.60;;
18853;SDS011;9556;49.374;19.446;2023-02-19T07:19:15;7.67;;;0.80;;
18853;SDS011;9556;49.374;19.446;2023-02-19T07:21:42;2.67;;;0.53;;
18853;SDS011;9556;49.374;19.446;2023-02-19T07:24:10;14.13;;;0.70;;
18853;SDS011;9556;49.374;19.446;2023-02-19T07:26:37;12.83;;;0.90;;
18853;SDS011;9556;49.374;19.446;2023-02-19T07:29:04;7.00;;;0.90;;
18853;SDS011;9556;49.374;19.446;2023-02-19T07:31:31;4.60;;;0.90;;
18853;SDS011;9556;49.374;19.446;2023-02-19T07:34:00;5.03;;;0.90;;
18853;SDS011;9556;49.374;19.446;2023-02-19T07:36:27;6.00;;;0.73;;
18853;SDS011;9556;49.374;19.446;2023-02-19T07:38:55;16.63;;;1.00;;
18853;SDS011;9556;49.374;19.446;2023-02-19T07:41:22;7.18;;;1.55;;
18853;SDS011;9556;49.374;19.446;2023-02-19T07:43:50;5.83;;;0.70;;
18853;SDS011;9556;49.374;19.446;2023-02-19T07:46:20;3.13;;;0.83;;
18853;SDS011;9556;49.374;19.446;2023-02-19T07:48:47;1.33;;;0.70;;
18853;SDS011;9556;49.374;19.446;2023-02-19T07:51:18;10.07;;;0.90;;
18853;SDS011;9556;49.374;19.446;2023-02-19T07:53:45;3.83;;;0.83;;
18853;SDS011;9556;49.374;19.446;2023-02-19T07:56:14;3.33;;;0.80;;
18853;SDS011;9556;49.374;19.446;2023-02-19T07:58:41;4.83;;;0.90;;
18853;SDS011;9556;49.374;19.446;2023-02-19T08:01:11;4.30;;;0.83;;
18853;SDS011;9556;49.374;19.446;2023-02-19T08:03:39;4.50;;;0.80;;
18853;SDS011;9556;49.374;19.446;2023-02-19T08:20:26;3.75;;;0.80;;
18853;SDS011;9556;49.374;19.446;2023-02-19T08:22:54;2.88;;;0.90;;
18853;SDS011;9556;49.374;19.446;2023-02-19T08:25:21;1.38;;;0.93;;
18853;SDS011;9556;49.374;19.446;2023-02-19T08:27:48;1.73;;;0.75;;
18853;SDS011;9556;49.374;19.446;2023-02-19T08:30:15;1.33;;;0.70;;
18853;SDS011;9556;49.374;19.446;2023-02-19T08:32:42;1.95;;;0.80;;
18853;SDS011;9556;49.374;19.446;2023-02-19T08:35:09;0.83;;;0.50;;
18853;SDS011;9556;49.374;19.446;2023-02-19T08:37:38;1.03;;;0.60;;
18853;SDS011;9556;49.374;19.446;2023-02-19T08:40:05;0.65;;;0.60;;
18853;SDS011;9556;49.374;19.446;2023-02-19T08:42:33;2.23;;;0.70;;
18853;SDS011;9556;49.374;19.446;2023-02-19T08:45:00;3.17;;;0.80;;
18853;SDS011;9556;49.374;19.446;2023-02-19T08:47:27;1.53;;;0.70;;
18853;SDS011;9556;49.374;19.446;2023-02-19T08:49:54;4.35;;;0.80;;
18853;SDS011;9556;49.374;19.446;2023-02-19T08:52:21;3.27;;;0.93;;
18853;SDS011;9556;49.374;19.446;2023-02-19T08:54:50;1.73;;;0.90;;
18853;SDS011;9556;49.374;19.446;2023-02-19T08:57:17;2.67;;;0.63;;
18853;SDS011;9556;49.374;19.446;2023-02-19T08:59:44;3.15;;;0.80;;
18853;SDS011;9556;49.374;19.446;2023-02-19T09:02:11;4.07;;;0.82;;
18853;SDS011;9556;49.374;19.446;2023-02-19T09:04:39;2.42;;;0.75;;
18853;SDS011;9556;49.374;19.446;2023-02-19T09:07:06;2.10;;;0.73;;
18853;SDS011;9556;49.374;19.446;2023-02-19T09:09:35;7.57;;;0.87;;
18853;SDS011;9556;49.374;19.446;2023-02-19T09:12:04;3.30;;;0.70;;
18853;SDS011;9556;49.374;19.446;2023-02-19T09:14:32;1.10;;;0.70;;
18853;SDS011;9556;49.374;19.446;2023-02-19T09:16:59;2.27;;;0.90;;
18853;SDS011;9556;49.374;19.446;2023-02-19T09:19:26;3.90;;;1.10;;
18853;SDS011;9556;49.374;19.446;2023-02-19T09:33:15;23.15;;;3.58;;
18853;SDS011;9556;49.374;19.446;2023-02-19T09:35:42;14.88;;;3.33;;
18853;SDS011;9556;49.374;19.446;2023-02-19T09:38:09;13.38;;;2.80;;
18853;SDS011;9556;49.374;19.446;2023-02-19T09:40:36;8.90;;;2.40;;
18853;SDS011;9556;49.374;19.446;2023-02-19T09:43:05;10.60;;;2.50;;
18853;SDS011;9556;49.374;19.446;2023-02-19T09:45:32;12.82;;;2.08;;
18853;SDS011;9556;49.374;19.446;2023-02-19T09:48:00;8.97;;;2.00;;
18853;SDS011;9556;49.374;19.446;2023-02-19T09:50:44;9.43;;;2.23;;
18853;SDS011;9556;49.374;19.446;2023-02-19T09:53:14;10.67;;;2.00;;
18853;SDS011;9556;49.374;19.446;2023-02-19T09:55:42;8.82;;;1.65;;
18853;SDS011;9556;49.374;19.446;2023-02-19T09:58:16;12.77;;;2.23;;
18853;SDS011;9556;49.374;19.446;2023-02-19T10:00:44;9.37;;;2.10;;
18853;SDS011;9556;49.374;19.446;2023-02-19T10:03:16;14.07;;;2.00;;
18853;SDS011;9556;49.374;19.446;2023-02-19T10:05:48;7.47;;;1.50;;
18853;SDS011;9556;49.374;19.446;2023-02-19T10:08:17;6.47;;;2.03;;
18853;SDS011;9556;49.374;19.446;2023-02-19T10:10:44;7.55;;;1.77;;
18853;SDS011;9556;49.374;19.446;2023-02-19T10:13:14;7.00;;;1.60;;
18853;SDS011;9556;49.374;19.446;2023-02-19T10:15:45;6.22;;;1.92;;
18853;SDS011;9556;49.374;19.446;2023-02-19T10:18:14;7.20;;;1.67;;
18853;SDS011;9556;49.374;19.446;2023-02-19T10:20:42;8.30;;;2.03;;
18853;SDS011;9556;49.374;19.446;2023-02-19T10:23:14;4.13;;;1.10;;
18853;SDS011;9556;49.374;19.446;2023-02-19T10:25:43;5.20;;;1.80;;
18853;SDS011;9556;49.374;19.446;2023-02-19T10:28:11;8.77;;;1.98;;
18853;SDS011;9556;49.374;19.446;2023-02-19T10:30:40;8.10;;;1.70;;
18853;SDS011;9556;49.374;19.446;2023-02-19T10:33:09;12.20;;;2.28;;
18853;SDS011;9556;49.374;19.446;2023-02-19T10:35:37;9.52;;;1.90;;
18853;SDS011;9556;49.374;19.446;2023-02-19T10:38:04;6.53;;;1.90;;
18853;SDS011;9556;49.374;19.446;2023-02-19T10:40:33;9.77;;;2.05;;
18853;SDS011;9556;49.374;19.446;2023-02-19T10:43:01;7.72;;;1.58;;
18853;SDS011;9556;49.374;19.446;2023-02-19T10:45:32;7.22;;;1.67;;
18853;SDS011;9556;49.374;19.446;2023-02-19T10:47:59;10.57;;;1.92;;
18853;SDS011;9556;49.374;19.446;2023-02-19T10:50:28;6.33;;;1.40;;
18853;SDS011;9556;49.374;19.446;2023-02-19T10:52:57;8.37;;;2.03;;
18853;SDS011;9556;49.374;19.446;2023-02-19T10:55:25;4.75;;;1.52;;
18853;SDS011;9556;49.374;19.446;2023-02-19T10:57:55;4.97;;;1.75;;
18853;SDS011;9556;49.374;19.446;2023-02-19T11:00:22;6.68;;;1.52;;
18853;SDS011;9556;49.374;19.446;2023-02-19T11:02:58;6.32;;;1.60;;
18853;SDS011;9556;49.374;19.446;2023-02-19T11:05:38;3.90;;;1.30;;
18853;SDS011;9556;49.374;19.446;2023-02-19T11:08:14;4.47;;;1.80;;
18853;SDS011;9556;49.374;19.446;2023-02-19T11:10:45;7.97;;;1.67;;
18853;SDS011;9556;49.374;19.446;2023-02-19T11:13:16;8.77;;;1.95;;
18853;SDS011;9556;49.374;19.446;2023-02-19T11:15:49;5.53;;;1.52;;
18853;SDS011;9556;49.374;19.446;2023-02-19T11:18:19;7.28;;;1.58;;
18853;SDS011;9556;49.374;19.446;2023-02-19T11:20:48;11.37;;;2.00;;
18853;SDS011;9556;49.374;19.446;2023-02-19T11:23:15;4.90;;;1.63;;
18853;SDS011;9556;49.374;19.446;2023-02-19T11:25:43;6.15;;;1.40;;
18853;SDS011;9556;49.374;19.446;2023-02-19T11:28:21;5.63;;;1.40;;
18853;SDS011;9556;49.374;19.446;2023-02-19T11:30:49;4.35;;;1.40;;
18853;SDS011;9556;49.374;19.446;2023-02-19T11:36:16;3.67;;;1.45;;
18853;SDS011;9556;49.374;19.446;2023-02-19T11:38:44;4.05;;;1.48;;
18853;SDS011;9556;49.374;19.446;2023-02-19T11:41:13;9.20;;;1.60;;
18853;SDS011;9556;49.374;19.446;2023-02-19T11:43:49;3.13;;;1.20;;
18853;SDS011;9556;49.374;19.446;2023-02-19T11:46:23;3.07;;;1.30;;
18853;SDS011;9556;49.374;19.446;2023-02-19T11:48:52;4.47;;;1.50;;
18853;SDS011;9556;49.374;19.446;2023-02-19T11:51:22;5.75;;;1.58;;
18853;SDS011;9556;49.374;19.446;2023-02-19T11:53:56;3.08;;;1.40;;
18853;SDS011;9556;49.374;19.446;2023-02-19T11:56:29;4.57;;;1.35;;
18853;SDS011;9556;49.374;19.446;2023-02-19T11:59:00;6.63;;;1.38;;
18853;SDS011;9556;49.374;19.446;2023-02-19T12:04:24;2.77;;;1.10;;
18853;SDS011;9556;49.374;19.446;2023-02-19T12:07:01;6.53;;;1.15;;
18853;SDS011;9556;49.374;19.446;2023-02-19T12:09:36;7.03;;;1.50;;
18853;SDS011;9556;49.374;19.446;2023-02-19T12:12:10;4.70;;;1.23;;
18853;SDS011;9556;49.374;19.446;2023-02-19T12:14:47;3.43;;;1.27;;
18853;SDS011;9556;49.374;19.446;2023-02-19T12:17:22;5.07;;;1.33;;
18853;SDS011;9556;49.374;19.446;2023-02-19T12:19:57;3.87;;;1.23;;
18853;SDS011;9556;49.374;19.446;2023-02-19T12:22:29;4.10;;;1.27;;
18853;SDS011;9556;49.374;19.446;2023-02-19T12:27:46;3.57;;;1.20;;
18853;SDS011;9556;49.374;19.446;2023-02-19T12:30:26;5.00;;;1.38;;
18853;SDS011;9556;49.374;19.446;2023-02-19T12:33:03;4.53;;;1.20;;
18853;SDS011;9556;49.374;19.446;2023-02-19T12:35:37;3.28;;;1.17;;
18853;SDS011;9556;49.374;19.446;2023-02-19T12:38:10;6.35;;;1.33;;
18853;SDS011;9556;49.374;19.446;2023-02-19T12:40:44;5.43;;;1.40;;
18853;SDS011;9556;49.374;19.446;2023-02-19T12:43:17;7.20;;;1.73;;
18853;SDS011;9556;49.374;19.446;2023-02-19T12:45:46;5.18;;;1.15;;
18853;SDS011;9556;49.374;19.446;2023-02-19T12:48:18;3.27;;;1.43;;
18853;SDS011;9556;49.374;19.446;2023-02-19T12:50:47;4.10;;;1.20;;
18853;SDS011;9556;49.374;19.446;2023-02-19T12:53:22;2.07;;;1.00;;
18853;SDS011;9556;49.374;19.446;2023-02-19T12:55:50;4.73;;;1.13;;
18853;SDS011;9556;49.374;19.446;2023-02-19T12:58:19;11.73;;;1.50;;
18853;SDS011;9556;49.374;19.446;2023-02-19T13:00:51;3.27;;;1.40;;
18853;SDS011;9556;49.374;19.446;2023-02-19T13:03:21;7.55;;;1.40;;
18853;SDS011;9556;49.374;19.446;2023-02-19T13:05:50;4.00;;;1.35;;
18853;SDS011;9556;49.374;19.446;2023-02-19T13:08:19;5.23;;;1.13;;
18853;SDS011;9556;49.374;19.446;2023-02-19T13:10:49;3.83;;;1.55;;
18853;SDS011;9556;49.374;19.446;2023-02-19T13:13:18;9.63;;;1.30;;
18853;SDS011;9556;49.374;19.446;2023-02-19T13:15:48;5.65;;;1.23;;
18853;SDS011;9556;49.374;19.446;2023-02-19T13:18:18;4.63;;;1.35;;
18853;SDS011;9556;49.374;19.446;2023-02-19T13:20:46;6.67;;;1.67;;
18853;SDS011;9556;49.374;19.446;2023-02-19T13:23:16;4.47;;;1.40;;
18853;SDS011;9556;49.374;19.446;2023-02-19T13:26:13;5.78;;;2.80;;
18853;SDS011;9556;49.374;19.446;2023-02-19T13:28:49;7.60;;;3.40;;
18853;SDS011;9556;49.374;19.446;2023-02-19T13:31:27;6.97;;;3.10;;
18853;SDS011;9556;49.374;19.446;2023-02-19T13:34:01;4.65;;;2.28;;
18853;SDS011;9556;49.374;19.446;2023-02-19T13:36:30;7.53;;;3.67;;
18853;SDS011;9556;49.374;19.446;2023-02-19T13:38:58;7.03;;;3.83;;
18853;SDS011;9556;49.374;19.446;2023-02-19T13:41:26;15.95;;;6.80;;
18853;SDS011;9556;49.374;19.446;2023-02-19T13:43:55;23.43;;;10.50;;
18853;SDS011;9556;49.374;19.446;2023-02-19T13:46:23;27.70;;;12.47;;
18853;SDS011;9556;49.374;19.446;2023-02-19T13:51:46;19.08;;;7.30;;
18853;SDS011;9556;49.374;19.446;2023-02-19T13:54:22;13.80;;;5.17;;
18853;SDS011;9556;49.374;19.446;2023-02-19T13:56:51;9.93;;;4.67;;
18853;SDS011;9556;49.374;19.446;2023-02-19T13:59:38;12.40;;;4.30;;
18853;SDS011;9556;49.374;19.446;2023-02-19T14:02:09;13.30;;;4.90;;
18853;SDS011;9556;49.374;19.446;2023-02-19T14:04:48;9.93;;;4.73;;
18853;SDS011;9556;49.374;19.446;2023-02-19T14:10:02;11.10;;;5.70;;
18853;SDS011;9556;49.374;19.446;2023-02-19T14:12:31;11.73;;;5.17;;
18853;SDS011;9556;49.374;19.446;2023-02-19T14:17:40;8.52;;;4.93;;
18853;SDS011;9556;49.374;19.446;2023-02-19T14:25:43;6.73;;;4.13;;
18853;SDS011;9556;49.374;19.446;2023-02-19T14:28:19;8.93;;;4.80;;
18853;SDS011;9556;49.374;19.446;2023-02-19T14:30:48;7.18;;;4.53;;
18853;SDS011;9556;49.374;19.446;2023-02-19T14:33:16;12.67;;;6.33;;
18853;SDS011;9556;49.374;19.446;2023-02-19T14:35:44;7.87;;;4.73;;
18853;SDS011;9556;49.374;19.446;2023-02-19T14:38:13;7.10;;;4.57;;
18853;SDS011;9556;49.374;19.446;2023-02-19T14:40:44;7.00;;;4.30;;
18853;SDS011;9556;49.374;19.446;2023-02-19T14:43:13;7.17;;;4.10;;
18853;SDS011;9556;49.374;19.446;2023-02-19T14:45:41;7.57;;;4.10;;
18853;SDS011;9556;49.374;19.446;2023-02-19T14:48:12;6.77;;;3.90;;
18853;SDS011;9556;49.374;19.446;2023-02-19T14:50:41;6.20;;;3.50;;
18853;SDS011;9556;49.374;19.446;2023-02-19T14:53:11;6.87;;;3.67;;
18853;SDS011;9556;49.374;19.446;2023-02-19T14:55:41;7.50;;;3.33;;
18853;SDS011;9556;49.374;19.446;2023-02-19T14:58:11;9.25;;;3.70;;
18853;SDS011;9556;49.374;19.446;2023-02-19T15:00:39;5.87;;;3.50;;
18853;SDS011;9556;49.374;19.446;2023-02-19T15:03:20;6.37;;;3.90;;
18853;SDS011;9556;49.374;19.446;2023-02-19T15:05:52;5.77;;;3.40;;
18853;SDS011;9556;49.374;19.446;2023-02-19T15:08:20;5.85;;;3.47;;
18853;SDS011;9556;49.374;19.446;2023-02-19T15:10:50;7.95;;;3.88;;
18853;SDS011;9556;49.374;19.446;2023-02-19T15:13:20;6.32;;;3.60;;
18853;SDS011;9556;49.374;19.446;2023-02-19T15:15:50;5.60;;;3.30;;
18853;SDS011;9556;49.374;19.446;2023-02-19T15:18:20;6.60;;;3.13;;
18853;SDS011;9556;49.374;19.446;2023-02-19T15:20:48;5.67;;;3.17;;
18853;SDS011;9556;49.374;19.446;2023-02-19T15:23:17;5.47;;;3.03;;
18853;SDS011;9556;49.374;19.446;2023-02-19T15:25:46;5.47;;;3.07;;
18853;SDS011;9556;49.374;19.446;2023-02-19T15:28:19;5.73;;;3.10;;
18853;SDS011;9556;49.374;19.446;2023-02-19T15:30:46;4.57;;;3.03;;
18853;SDS011;9556;49.374;19.446;2023-02-19T15:33:14;4.45;;;2.63;;
18853;SDS011;9556;49.374;19.446;2023-02-19T15:35:45;4.90;;;2.73;;
18853;SDS011;9556;49.374;19.446;2023-02-19T15:38:13;5.17;;;2.60;;
18853;SDS011;9556;49.374;19.446;2023-02-19T15:40:42;4.10;;;2.63;;
18853;SDS011;9556;49.374;19.446;2023-02-19T15:43:11;4.93;;;2.77;;
18853;SDS011;9556;49.374;19.446;2023-02-19T15:45:44;5.33;;;2.50;;
18853;SDS011;9556;49.374;19.446;2023-02-19T15:48:13;5.27;;;2.80;;
18853;SDS011;9556;49.374;19.446;2023-02-19T15:50:43;4.03;;;2.53;;